Time,TemperatureF,DewpointF,PressureIn,WindDirection,WindDirectionDegrees,WindSpeedMPH,WindSpeedGustMPH,Humidity,HourlyPrecipIn,Conditions,Clouds,dailyrainin,SoftwareType,DateUTC
2013-02-10 00:13:00,25.0,11.5,30.54,WNW,300,0.0,3.0,56,0.00,,,0.00,Wunderground v.1.15,2013-02-10 05:13:00,
2013-02-10 00:18:00,25.0,11.9,30.54,WNW,300,0.0,3.0,57,0.00,,,0.00,Wunderground v.1.15,2013-02-10 05:18:00,
2013-02-10 00:28:00,25.1,12.0,30.54,WNW,300,0.0,3.0,57,0.00,,,0.00,Wunderground v.1.15,2013-02-10 05:28:00,
2013-02-10 00:38:00,25.0,11.9,30.54,WNW,300,0.0,3.0,57,0.00,,,0.00,Wunderground v.1.15,2013-02-10 05:38:00,
2013-02-10 00:43:00,24.8,11.7,30.54,WNW,300,0.0,3.0,57,0.00,,,0.00,Wunderground v.1.15,2013-02-10 05:43:00,
2013-02-10 00:53:00,24.4,11.7,30.54,WNW,300,0.0,0.0,58,0.00,,,0.00,Wunderground v.1.15,2013-02-10 05:53:00,
2013-02-10 01:13:00,23.8,11.9,30.55,WNW,301,0.0,0.0,60,0.00,,,0.00,Wunderground v.1.15,2013-02-10 06:13:00,
2013-02-10 01:18:00,23.9,12.4,30.55,WNW,301,0.0,0.0,61,0.00,,,0.00,Wunderground v.1.15,2013-02-10 06:18:00,
2013-02-10 01:28:00,24.2,11.5,30.55,WNW,300,0.0,0.0,58,0.00,,,0.00,Wunderground v.1.15,2013-02-10 06:28:00,
2013-02-10 01:33:00,24.1,11.4,30.54,WNW,300,0.0,0.0,58,0.00,,,0.00,Wunderground v.1.15,2013-02-10 06:33:00,
2013-02-10 01:43:00,24.1,11.4,30.54,WNW,300,0.0,0.0,58,0.00,,,0.00,Wunderground v.1.15,2013-02-10 06:43:00,
2013-02-10 01:58:00,24.5,10.6,30.54,WNW,300,0.0,2.0,55,0.00,,,0.00,Wunderground v.1.15,2013-02-10 06:58:00,
2013-02-10 02:18:00,23.9,11.3,30.54,WNW,300,0.0,2.0,58,0.00,,,0.00,Wunderground v.1.15,2013-02-10 07:18:00,
2013-02-10 02:28:00,23.6,11.4,30.54,WNW,300,0.0,2.0,59,0.00,,,0.00,Wunderground v.1.15,2013-02-10 07:28:00,
2013-02-10 02:43:00,23.6,11.4,30.55,WNW,300,0.0,2.0,59,0.00,,,0.00,Wunderground v.1.15,2013-02-10 07:43:00,
2013-02-10 02:53:00,23.5,10.9,30.54,WNW,300,0.0,0.0,58,0.00,,,0.00,Wunderground v.1.15,2013-02-10 07:53:00,
2013-02-10 03:13:00,23.0,11.9,30.54,WNW,300,0.0,0.0,62,0.00,,,0.00,Wunderground v.1.15,2013-02-10 08:13:00,
2013-02-10 03:18:00,22.9,11.8,30.53,WNW,301,0.0,0.0,62,0.00,,,0.00,Wunderground v.1.15,2013-02-10 08:18:00,
2013-02-10 03:33:00,21.9,11.6,30.53,WNW,300,0.0,0.0,64,0.00,,,0.00,Wunderground v.1.15,2013-02-10 08:33:00,
2013-02-10 03:43:00,22.4,12.1,30.53,WNW,300,0.0,0.0,64,0.00,,,0.00,Wunderground v.1.15,2013-02-10 08:43:00,
2013-02-10 03:48:00,22.4,12.1,30.53,WNW,300,1.0,1.0,64,0.00,,,0.00,Wunderground v.1.15,2013-02-10 08:48:00,
2013-02-10 03:58:00,22.2,11.9,30.53,WNW,300,0.0,3.0,64,0.00,,,0.00,Wunderground v.1.15,2013-02-10 08:58:00,
2013-02-10 04:18:00,19.5,11.0,30.53,WNW,300,3.0,3.0,69,0.00,,,0.00,Wunderground v.1.15,2013-02-10 09:18:00,
2013-02-10 04:28:00,18.9,10.7,30.53,WNW,300,3.0,3.0,70,0.00,,,0.00,Wunderground v.1.15,2013-02-10 09:28:00,
2013-02-10 04:33:00,19.2,11.0,30.54,WNW,300,2.0,3.0,70,0.00,,,0.00,Wunderground v.1.15,2013-02-10 09:33:00,
2013-02-10 04:43:00,19.5,10.6,30.54,WNW,300,2.0,3.0,68,0.00,,,0.00,Wunderground v.1.15,2013-02-10 09:43:00,
2013-02-10 04:58:00,19.4,10.6,30.54,WNW,300,1.0,1.0,68,0.00,,,0.00,Wunderground v.1.15,2013-02-10 09:58:00,
2013-02-10 05:08:00,20.2,10.3,30.54,WNW,300,0.0,4.0,65,0.00,,,0.00,Wunderground v.1.15,2013-02-10 10:08:00,
2013-02-10 05:13:00,20.5,9.5,30.54,WNW,300,0.0,4.0,62,0.00,,,0.00,Wunderground v.1.15,2013-02-10 10:13:00,
2013-02-10 05:23:00,20.3,9.0,30.54,WNW,300,1.0,4.0,61,0.00,,,0.00,Wunderground v.1.15,2013-02-10 10:23:00,
2013-02-10 05:38:00,19.9,9.3,30.54,WNW,300,2.0,2.0,63,0.00,,,0.00,Wunderground v.1.15,2013-02-10 10:38:00,
2013-02-10 05:48:00,20.2,9.2,30.55,WNW,300,0.0,4.0,62,0.00,,,0.00,Wunderground v.1.15,2013-02-10 10:48:00,
2013-02-10 05:53:00,20.5,9.2,30.55,WNW,300,0.0,4.0,61,0.00,,,0.00,Wunderground v.1.15,2013-02-10 10:53:00,
2013-02-10 06:08:00,19.9,9.3,30.56,WNW,300,2.0,3.0,63,0.00,,,0.00,Wunderground v.1.15,2013-02-10 11:08:00,
2013-02-10 06:13:00,19.9,9.3,30.56,WNW,300,2.0,3.0,63,0.00,,,0.00,Wunderground v.1.15,2013-02-10 11:13:00,
2013-02-10 06:23:00,20.2,9.2,30.56,WNW,300,1.0,3.0,62,0.00,,,0.00,Wunderground v.1.15,2013-02-10 11:23:00,
2013-02-10 06:33:00,19.9,9.3,30.56,WNW,301,2.0,3.0,63,0.00,,,0.00,Wunderground v.1.15,2013-02-10 11:33:00,
2013-02-10 06:43:00,19.2,9.0,30.56,WNW,300,3.0,4.0,64,0.00,,,0.00,Wunderground v.1.15,2013-02-10 11:43:00,
2013-02-10 06:48:00,19.4,9.2,30.56,WNW,300,3.0,5.0,64,0.00,,,0.00,Wunderground v.1.15,2013-02-10 11:48:00,
2013-02-10 06:58:00,18.8,9.6,30.56,WNW,300,4.0,4.0,67,0.00,,,0.00,Wunderground v.1.15,2013-02-10 11:58:00,
2013-02-10 07:08:00,18.6,9.8,30.57,WNW,300,4.0,4.0,68,0.00,,,0.00,Wunderground v.1.15,2013-02-10 12:08:00,
2013-02-10 07:13:00,18.4,9.9,30.57,WNW,300,3.0,5.0,69,0.00,,,0.00,Wunderground v.1.15,2013-02-10 12:13:00,
2013-02-10 07:23:00,18.9,9.7,30.57,WNW,301,3.0,3.0,67,0.00,,,0.00,Wunderground v.1.15,2013-02-10 12:23:00,
2013-02-10 07:33:00,20.0,9.4,30.58,WNW,300,0.0,5.0,63,0.00,,,0.00,Wunderground v.1.15,2013-02-10 12:33:00,
2013-02-10 07:38:00,20.5,10.2,30.58,WNW,301,0.0,5.0,64,0.00,,,0.00,Wunderground v.1.15,2013-02-10 12:38:00,
2013-02-10 07:48:00,21.3,12.0,30.57,WNW,300,1.0,5.0,67,0.00,,,0.00,Wunderground v.1.15,2013-02-10 12:48:00,
2013-02-10 07:58:00,21.8,12.5,30.57,WNW,300,2.0,5.0,67,0.00,,,0.00,Wunderground v.1.15,2013-02-10 12:58:00,
2013-02-10 08:08:00,22.1,12.8,30.57,WNW,300,0.0,5.0,67,0.00,,,0.00,Wunderground v.1.15,2013-02-10 13:08:00,
2013-02-10 08:13:00,22.4,13.4,30.57,WNW,300,0.0,5.0,68,0.00,,,0.00,Wunderground v.1.15,2013-02-10 13:13:00,
2013-02-10 08:23:00,22.2,12.6,30.56,WNW,300,0.0,5.0,66,0.00,,,0.00,Wunderground v.1.15,2013-02-10 13:23:00,
2013-02-10 08:33:00,23.2,13.2,30.56,WNW,300,1.0,1.0,65,0.00,,,0.00,Wunderground v.1.15,2013-02-10 13:33:00,
2013-02-10 08:38:00,23.5,13.5,30.56,WNW,300,0.0,5.0,65,0.00,,,0.00,Wunderground v.1.15,2013-02-10 13:38:00,
2013-02-10 08:48:00,24.5,14.1,30.55,WNW,301,0.0,5.0,64,0.00,,,0.00,Wunderground v.1.15,2013-02-10 13:48:00,
2013-02-10 09:13:00,26.6,14.9,30.55,WNW,300,0.0,3.0,61,0.00,,,0.00,Wunderground v.1.15,2013-02-10 14:13:00,
2013-02-10 09:28:00,25.3,16.2,30.56,WNW,301,2.0,4.0,68,0.00,,,0.00,Wunderground v.1.15,2013-02-10 14:28:00,
2013-02-10 09:38:00,26.0,16.9,30.56,WNW,300,2.0,3.0,68,0.00,,,0.00,Wunderground v.1.15,2013-02-10 14:38:00,
2013-02-10 09:44:00,26.3,16.5,30.56,WNW,300,3.0,4.0,66,0.00,,,0.00,Wunderground v.1.15,2013-02-10 14:44:00,
2013-02-10 09:53:00,25.8,15.6,30.55,WNW,301,3.0,5.0,65,0.00,,,0.00,Wunderground v.1.15,2013-02-10 14:53:00,
2013-02-10 09:59:00,25.6,15.1,30.55,WNW,300,2.0,5.0,64,0.00,,,0.00,Wunderground v.1.15,2013-02-10 14:59:00,
2013-02-10 10:13:00,25.4,15.6,30.55,WNW,301,3.0,5.0,66,0.00,,,0.00,Wunderground v.1.15,2013-02-10 15:13:00,
2013-02-10 10:19:00,25.4,16.3,30.54,WNW,301,3.0,5.0,68,0.00,,,0.00,Wunderground v.1.15,2013-02-10 15:19:00,
2013-02-10 10:28:00,25.4,15.6,30.54,WNW,300,1.0,5.0,66,0.00,,,0.00,Wunderground v.1.15,2013-02-10 15:28:00,
2013-02-10 10:34:00,26.0,15.8,30.54,WNW,301,1.0,5.0,65,0.00,,,0.00,Wunderground v.1.15,2013-02-10 15:34:00,
2013-02-10 10:54:00,27.8,15.7,30.53,WNW,301,3.0,6.0,60,0.00,,,0.00,Wunderground v.1.15,2013-02-10 15:54:00,
2013-02-10 10:59:00,28.2,15.3,30.53,WNW,301,3.0,3.0,58,0.00,,,0.00,Wunderground v.1.15,2013-02-10 15:59:00,
2013-02-10 11:19:00,29.1,16.5,30.52,WNW,301,3.0,3.0,59,0.00,,,0.00,Wunderground v.1.15,2013-02-10 16:19:00,
2013-02-10 11:28:00,31.0,19.5,30.52,WNW,301,2.0,2.0,62,0.00,,,0.00,Wunderground v.1.15,2013-02-10 16:28:00,
2013-02-10 11:38:00,32.1,17.3,30.51,WNW,301,1.0,1.0,54,0.00,,,0.00,Wunderground v.1.15,2013-02-10 16:38:00,
2013-02-10 11:44:00,31.3,17.0,30.51,WNW,300,1.0,6.0,55,0.00,,,0.00,Wunderground v.1.15,2013-02-10 16:44:00,
2013-02-10 11:54:00,31.8,19.1,30.51,WNW,301,0.0,6.0,59,0.00,,,0.00,Wunderground v.1.15,2013-02-10 16:54:00,
2013-02-10 12:14:00,33.8,18.5,30.50,NNW,347,4.0,6.0,53,0.00,,,0.00,Wunderground v.1.15,2013-02-10 17:14:00,
2013-02-10 12:29:00,35.0,19.1,30.48,North,360,4.0,6.0,52,0.00,,,0.00,Wunderground v.1.15,2013-02-10 17:29:00,
2013-02-10 12:39:00,34.9,18.6,30.48,North,5,4.0,6.0,51,0.00,,,0.00,Wunderground v.1.15,2013-02-10 17:39:00,
2013-02-10 12:44:00,35.8,19.9,30.48,NNE,14,4.0,6.0,52,0.00,,,0.00,Wunderground v.1.15,2013-02-10 17:44:00,
2013-02-10 12:53:00,36.3,18.9,30.47,NNE,14,4.0,7.0,49,0.00,,,0.00,Wunderground v.1.15,2013-02-10 17:53:00,
2013-02-10 12:59:00,35.9,18.1,30.47,NNE,31,5.0,7.0,48,0.00,,,0.00,Wunderground v.1.15,2013-02-10 17:59:00,
2013-02-10 13:14:00,34.9,19.5,30.45,NE,53,5.0,7.0,53,0.00,,,0.00,Wunderground v.1.15,2013-02-10 18:14:00,
2013-02-10 13:19:00,34.9,19.0,30.45,NE,53,5.0,7.0,52,0.00,,,0.00,Wunderground v.1.15,2013-02-10 18:19:00,
2013-02-10 13:29:00,35.5,20.0,30.45,NE,53,4.0,4.0,53,0.00,,,0.00,Wunderground v.1.15,2013-02-10 18:29:00,
2013-02-10 13:44:00,34.9,17.7,30.45,NE,53,2.0,7.0,49,0.00,,,0.00,Wunderground v.1.15,2013-02-10 18:44:00,
2013-02-10 13:54:00,36.2,20.7,30.44,NE,53,4.0,4.0,53,0.00,,,0.00,Wunderground v.1.15,2013-02-10 18:54:00,
2013-02-10 14:29:00,36.8,18.4,30.42,NE,53,3.0,3.0,47,0.00,,,0.00,Wunderground v.1.15,2013-02-10 19:29:00,
2013-02-10 14:39:00,38.6,20.1,30.41,NE,53,3.0,10.0,47,0.00,,,0.00,Wunderground v.1.15,2013-02-10 19:39:00,
2013-02-10 14:44:00,38.5,19.5,30.41,NE,53,4.0,10.0,46,0.00,,,0.00,Wunderground v.1.15,2013-02-10 19:44:00,
2013-02-10 14:54:00,37.2,18.3,30.40,NE,53,2.0,2.0,46,0.00,,,0.00,Wunderground v.1.15,2013-02-10 19:54:00,
2013-02-10 14:59:00,37.2,18.3,30.40,NE,53,2.0,7.0,46,0.00,,,0.00,Wunderground v.1.15,2013-02-10 19:59:00,
2013-02-10 15:19:00,37.8,18.3,30.41,NE,53,3.0,7.0,45,0.00,,,0.00,Wunderground v.1.15,2013-02-10 20:19:00,
2013-02-10 15:29:00,38.2,19.2,30.41,NE,53,2.0,2.0,46,0.00,,,0.00,Wunderground v.1.15,2013-02-10 20:29:00,
2013-02-10 15:34:00,38.6,20.1,30.40,NE,53,1.0,7.0,47,0.00,,,0.00,Wunderground v.1.15,2013-02-10 20:34:00,
2013-02-10 15:44:00,39.1,20.0,30.40,NE,53,1.0,7.0,46,0.00,,,0.00,Wunderground v.1.15,2013-02-10 20:44:00,
2013-02-10 15:54:00,39.2,19.6,30.39,NE,53,0.0,7.0,45,0.00,,,0.00,Wunderground v.1.15,2013-02-10 20:54:00,
2013-02-10 16:09:00,38.2,19.2,30.39,NE,53,0.0,5.0,46,0.00,,,0.00,Wunderground v.1.15,2013-02-10 21:09:00,
2013-02-10 16:24:00,37.6,19.2,30.39,NE,53,0.0,5.0,47,0.00,,,0.00,Wunderground v.1.15,2013-02-10 21:24:00,
2013-02-10 16:34:00,37.5,19.1,30.40,NE,53,0.0,5.0,47,0.00,,,0.00,Wunderground v.1.15,2013-02-10 21:34:00,
2013-02-10 16:44:00,37.3,19.4,30.40,NE,53,0.0,5.0,48,0.00,,,0.00,Wunderground v.1.15,2013-02-10 21:44:00,
2013-02-10 16:49:00,37.3,19.4,30.39,NE,53,0.0,5.0,48,0.00,,,0.00,Wunderground v.1.15,2013-02-10 21:49:00,
2013-02-10 16:59:00,37.5,21.0,30.39,NE,53,0.0,3.0,51,0.00,,,0.00,Wunderground v.1.15,2013-02-10 21:59:00,
2013-02-10 17:09:00,37.6,19.2,30.37,NE,53,1.0,1.0,47,0.00,,,0.00,Wunderground v.1.15,2013-02-10 22:09:00,
2013-02-10 17:19:00,37.6,19.7,30.38,NE,53,0.0,3.0,48,0.00,,,0.00,Wunderground v.1.15,2013-02-10 22:19:00,
2013-02-10 17:24:00,37.5,19.6,30.38,NE,53,0.0,3.0,48,0.00,,,0.00,Wunderground v.1.15,2013-02-10 22:24:00,
2013-02-10 17:34:00,37.5,20.1,30.38,NE,53,0.0,3.0,49,0.00,,,0.00,Wunderground v.1.15,2013-02-10 22:34:00,
2013-02-10 17:39:00,37.3,19.4,30.38,NE,53,0.0,3.0,48,0.00,,,0.00,Wunderground v.1.15,2013-02-10 22:39:00,
2013-02-10 17:49:00,37.5,20.1,30.37,NE,53,2.0,3.0,49,0.00,,,0.00,Wunderground v.1.15,2013-02-10 22:49:00,
2013-02-10 17:59:00,37.3,19.9,30.37,NE,53,2.0,5.0,49,0.00,,,0.00,Wunderground v.1.15,2013-02-10 22:59:00,
2013-02-10 18:09:00,37.2,18.8,30.36,NE,53,2.0,2.0,47,0.00,,,0.00,Wunderground v.1.15,2013-02-10 23:09:00,
2013-02-10 18:19:00,37.5,19.6,30.36,NE,53,1.0,5.0,48,0.00,,,0.00,Wunderground v.1.15,2013-02-10 23:19:00,
2013-02-10 18:24:00,37.5,19.6,30.36,NE,53,2.0,5.0,48,0.00,,,0.00,Wunderground v.1.15,2013-02-10 23:24:00,
2013-02-10 18:34:00,37.5,18.6,30.36,NE,53,0.0,5.0,46,0.00,,,0.00,Wunderground v.1.15,2013-02-10 23:34:00,
2013-02-10 18:44:00,37.6,19.2,30.36,NE,53,1.0,5.0,47,0.00,,,0.00,Wunderground v.1.15,2013-02-10 23:44:00,
2013-02-10 18:54:00,37.8,19.3,30.36,NE,53,2.0,6.0,47,0.00,,,0.00,Wunderground v.1.15,2013-02-10 23:54:00,
2013-02-10 18:59:00,37.8,19.3,30.36,NE,53,1.0,1.0,47,0.00,,,0.00,Wunderground v.1.15,2013-02-10 23:59:00,
2013-02-10 19:14:00,37.8,19.3,30.35,NE,53,1.0,1.0,47,0.00,,,0.00,Wunderground v.1.15,2013-02-11 00:14:00,
2013-02-10 19:19:00,37.0,19.1,30.35,NE,53,0.0,6.0,48,0.00,,,0.00,Wunderground v.1.15,2013-02-11 00:19:00,
2013-02-10 19:34:00,36.3,18.5,30.36,NE,53,0.0,6.0,48,0.00,,,0.00,Wunderground v.1.15,2013-02-11 00:34:00,
2013-02-10 19:44:00,36.0,18.7,30.36,NE,53,1.0,1.0,49,0.00,,,0.00,Wunderground v.1.15,2013-02-11 00:44:00,
2013-02-10 19:49:00,35.9,19.0,30.36,NE,53,1.0,6.0,50,0.00,,,0.00,Wunderground v.1.15,2013-02-11 00:49:00,
2013-02-10 19:59:00,36.2,18.9,30.36,NE,53,1.0,6.0,49,0.00,,,0.00,Wunderground v.1.15,2013-02-11 00:59:00,
2013-02-10 20:09:00,36.6,18.7,30.35,NE,53,3.0,3.0,48,0.00,,,0.00,Wunderground v.1.15,2013-02-11 01:09:00,
2013-02-10 20:19:00,36.2,19.8,30.35,NE,53,1.0,6.0,51,0.00,,,0.00,Wunderground v.1.15,2013-02-11 01:19:00,
2013-02-10 20:34:00,36.5,18.2,30.35,NE,53,1.0,1.0,47,0.00,,,0.00,Wunderground v.1.15,2013-02-11 01:34:00,
2013-02-10 20:39:00,37.0,17.6,30.35,NE,53,1.0,6.0,45,0.00,,,0.00,Wunderground v.1.15,2013-02-11 01:39:00,
2013-02-10 20:49:00,37.2,18.8,30.33,NE,53,1.0,1.0,47,0.00,,,0.00,Wunderground v.1.15,2013-02-11 01:49:00,
2013-02-10 20:59:00,37.0,18.6,30.33,NE,53,1.0,6.0,47,0.00,,,0.00,Wunderground v.1.15,2013-02-11 01:59:00,
2013-02-10 21:09:00,36.6,18.2,30.33,NE,53,2.0,6.0,47,0.00,,,0.00,Wunderground v.1.15,2013-02-11 02:09:00,
2013-02-10 21:19:00,36.5,18.2,30.32,NE,53,2.0,6.0,47,0.00,,,0.00,Wunderground v.1.15,2013-02-11 02:19:00,
2013-02-10 21:34:00,36.3,18.5,30.32,NE,53,2.0,2.0,48,0.00,,,0.00,Wunderground v.1.15,2013-02-11 02:34:00,
2013-02-10 21:44:00,37.5,18.1,30.32,ENE,76,3.0,6.0,45,0.00,,,0.00,Wunderground v.1.15,2013-02-11 02:44:00,
2013-02-10 21:58:00,38.6,17.5,30.31,East,98,3.0,3.0,42,0.00,,,0.00,Wunderground v.1.15,2013-02-11 02:58:00,
2013-02-10 22:08:00,38.3,17.2,30.31,East,98,3.0,11.0,42,0.00,,,0.00,Wunderground v.1.15,2013-02-11 03:08:00,
2013-02-10 22:18:00,38.5,17.4,30.29,SE,137,4.0,11.0,42,0.00,,,0.00,Wunderground v.1.15,2013-02-11 03:18:00,
2013-02-10 22:23:00,38.5,17.4,30.29,SE,137,5.0,11.0,42,0.00,,,0.00,Wunderground v.1.15,2013-02-11 03:23:00,
2013-02-10 22:48:00,38.5,18.4,30.28,SE,129,4.0,11.0,44,0.00,,,0.00,Wunderground v.1.15,2013-02-11 03:48:00,
2013-02-10 22:58:00,37.9,18.9,30.28,ESE,123,5.0,5.0,46,0.00,,,0.00,Wunderground v.1.15,2013-02-11 03:58:00,
2013-02-10 23:13:00,37.9,19.4,30.27,ESE,123,3.0,3.0,47,0.00,,,0.00,Wunderground v.1.15,2013-02-11 04:13:00,
2013-02-10 23:18:00,37.6,20.6,30.27,ESE,123,3.0,4.0,50,0.00,,,0.00,Wunderground v.1.15,2013-02-11 04:18:00,
2013-02-10 23:28:00,37.3,21.7,30.27,SE,124,3.0,3.0,53,0.00,,,0.00,Wunderground v.1.15,2013-02-11 04:28:00,
2013-02-10 23:33:00,37.3,23.0,30.27,ESE,123,3.0,6.0,56,0.00,,,0.00,Wunderground v.1.15,2013-02-11 04:33:00,
2013-02-10 23:43:00,37.5,22.8,30.27,ESE,123,3.0,14.0,55,0.00,,,0.00,Wunderground v.1.15,2013-02-11 04:43:00,
2013-02-10 23:48:00,37.5,23.6,30.25,ESE,123,3.0,14.0,57,0.00,,,0.00,Wunderground v.1.15,2013-02-11 04:48:00,
2013-02-10 23:58:00,37.3,24.3,30.25,SE,124,4.0,15.0,59,0.00,,,0.00,Wunderground v.1.15,2013-02-11 04:58:00,